A- A+ FrançaisEnglishEspañol中国

Services sur Internet Soldes sur Internet Des idées de cadeaux Météo Météo aéro

La météo à : Autours de vous Tarbes-Lourdes-PyrénéesPontoise-Cormeilles-En-VexinChateauroux-Deols Paris-Orly

manche à air

La météo aéronautique pour les pilotes, la préparation du vol avec les METAR (METeorological Aerodrome Report, message d'observation des conditions météorologiques pour l'aviation) et Les TAF (Terminal Aerodrome Forecast : message de prévision à court terme des conditions météorologiques pour l'aviation). Et les autres ressources comme les VAC (Visual Approch Chart) et les NOTAM (Notice To Airman) pour préprer les vols.

Aéroport Kuujjuarapik (Canada) / OACI CYGW/ IATA YGW

L'altitude de l'aéroport Kuujjuarapik est de 10 m = 33 ft. Il est situé à proximité de Kuujjuarapik (Canada). La météo générale à 5 jours est disponible pour Kuujjuarapik situé à 1 km.

METAR de l'aéroport Kuujjuarapik - CYGW

CYGW 141100Z AUTO 09013G21KT 9SM 04/02 A2974 RMK CLD MISG SLP073

Décodage du METAR de l'aéroport Kuujjuarapik (CA)

METAR émis par CYGW le lundi 14 octobre 2019 à 11:00 heure TU. C'est un METAR généré automatiquement. Attention ce METAR est obsolète car il a été émis il y a 14 heure et 56 minutes.

La visibilité est de 14.5 km = 9 sm.

La température est de 4°C = 39 °F et le point rosée est de 2°C = 36 °F . Ce qui correspond à 87% d'humidité relative.

Le QNH est de 1007 hPa = 29.74 inHg

Vent de 13 kt = 24 km/h avec des rafales à 21 kt = 39 km/h, orienté à 90°.

Pas de nuages.

RMK CLD MISG SLP073

TAF de l'aéroport Kuujjuarapik - CYGW

CYGW 291138Z 2912/2924 28020G30KT P6SM SCT020 BKN030 OVC050 TEMPO 2912/2924 5SM -SHRA BR OVC020 RMK FCST BASED ON AUTO OBS. NXT FCST BY 291800Z

CYGW 291138Z 2912/2924 28020G30KT P6SM nuages épars à 020 couverture nuageuse fragmentée à 030 couverture nuageuse soudée à 050 temporairement 2912/2924 5SM faible SHRA brume couverture nuageuse soudée à 020 remarques trombe ST BASED ON AUTO OBS. NXT trombe ST BY 291800Z

Aéroport à proximité de Kuujjuarapik

Météo générale à 5 jours à Kuujjuarapik (1 km)Aéroport Umiujaq (160 km)Aéroport Sanikiluaq (167 km)Aéroport La Grand Riviere (184 km)Aéroport La Grande 3 (216 km)Aéroport Wemindji (262 km)Aéroport La Grande 4 (314 km)

Vue aérienne de l'aéroport Kuujjuarapik

NOTAM de l'aéroport Kuujjuarapik

Les NOTAM sont fournis sans aucune garantie de leur actualité. Le pilote est le seul responsable de la vérification de sa validité avant de l'utiliser opérationnellement pour préparer un vol ou l'utiliser lors de sa navigation.

Pas de NOTAM

Sources des données